Escondido, CA (92027)

1:18 PM PST on February 01, 2015 (GMT -0800)
Moody Dr | Change Station
CLOSE
Current Station
Personal Weather Station
Location: Escondido, CA
Elevation: 771 ft
Nearby Weather Stations

Elev 771 ft 33.13 °N, 117.03 °W | Updated 1 second ago

Clear
Clear
79.0 °F
Feels Like 79 °F
N
0.7
Wind Variable Wind from South
Gusts 1.6 mph

Today
High -- | Low -- °F
--% Chance of Precip.
Yesterday
High -- | Low -- °F
Precip. -- in
6:43 AM 5:20 PM
Waxing Gibbous, 96% visible
Pressure 30.06 in
Visibility 10.0 miles
Clouds Clear
Heat Index 79 °F
Dew Point 50 °F
Humidity 36%
Rainfall 0.00 in
Snow Depth Not available.
UV 5 out of 12
Pollen 1.60 out of 12
Air Quality Not available.
Flu Activity Not available.
METAR KRNM 012053Z 30009KT 10SM CLR 22/02 A3008 RMK AO2 SLP178 T02220022 58013

More Conditions Fewer Conditions

Pressure 30.06 in
Visibility 10.0 miles
Clouds Clear
Heat Index 79 °F
Dew Point 50 °F
Humidity 36%
Rainfall 0.00 in
Snow Depth Not available.
UV 5 out of 12
Pollen 1.60 out of 12
Air Quality Not available.
Flu Activity Not available.
METAR KRNM 012053Z 30009KT 10SM CLR 22/02 A3008 RMK AO2 SLP178 T02220022 58013

More Conditions Fewer Conditions

10-Day Weather Forecast

Almanac

Astronomy

Feb. 01, 2015 Rise Set
Actual Time
Civil Twilight
Nautical Twilight
Astronomical Twilight
Moon
Length of Visible Light
Length of Day
Tomorrow will be .
, % of the Moon is Illuminated

Today's Extremes

State Highs State Lows

Community

WunderPhotos

Upload Photos

1,792,535 photos uploaded!

WunderBlogs® & News

Nearby

Air Quality

  Air Quality AQ Index Pollutant
Not available.

Snow Depth

Station Depth Elevation

Earthquake Activity

City Distance Mag. Time & Date
Minimum magnitude displayed is 2.5.

Coastal Water Temperatures

Place Temperature

Nearby Weather Stations